Tiempo atmosférico en la estación meteorológica de Almonte, Huelva (5 m.)



Fecha
DESCASC
Temp. máxima en grados centígrados (hora)
DESCASC
Temp. mínima en grados centígrados (hora)
DESCASC
Temp. media en grados centígrados
DESCASC
Racha de viento máxima en m/sg (hora)
DESCASC
Velocidad máxima media en intervalos de 10 minutos(hora)
DESCASC
Precipitaciones diarias en mm
DESCASC
Precipitaciones de 00:00 a 06:00 en mm
DESCASC
Precipitaciones de 06:00 a 12:00 en mm
DESCASC
Precipitaciones de 12:00 a 18:00 en mm
DESCASC
Precipitaciones de 18:00 a 24:00 en mm
DESCASC
18-08-2019 30.6 (15:50) 15.2 (07:50) 22.9 10.83 (17:40) 7.78 (17:50) 0 0 0 0 0
17-08-2019 35.3 (13:00) 15.8 (07:40) 25.5 8.61 (18:20) 6.67 (18:20) 0 0 0 0 0
16-08-2019 34.8 (17:30) 18.2 (08:30) 26.5 9.72 (17:10) 7.5 (16:20) 0 0 0 0 0
15-08-2019 34.2 (16:30) 16.9 (00:00) 25.6 8.89 (17:00) 6.67 (19:20) 0 0 0 0 0
14-08-2019 35.3 (14:20) 16.6 (00:00) 25.9 9.44 (17:20) 6.94 (17:00) 0 0 0 0 0
13-08-2019 33.3 (17:00) 11 (00:00) 22.1 8.61 (17:30) 6.67 (16:10) 0 0 0 0 0
12-08-2019 31.9 (14:20) 15.9 (00:00) 23.9 10 (18:00) 7.78 (16:00) 0 0 0 0 0
11-08-2019 33.1 (15:50) 15.7 (00:00) 24.4 12.5 (17:50) 9.17 (17:20) 0 0 0 0 0
10-08-2019 32.8 (16:30) 17.1 (00:00) 24.9 10.56 (19:30) 8.06 (19:00) 0 0 0 0 0
09-08-2019 29.7 (14:40) 19.2 (00:00) 24.5 11.94 (17:10) 8.61 (17:30) 0 0 0 0 0
08-08-2019 33.2 (14:00) 15.6 (00:00) 24.4 10.56 (17:40) 7.78 (17:40) 0 0 0 0 0
07-08-2019 30.9 (12:50) 16.4 (00:00) 23.6 10.28 (19:10) 7.78 (19:30) 0 0 0 0 0
06-08-2019 33.3 (13:20) 16.3 (00:00) 24.8 9.44 (19:20) 7.22 (19:00) 0 0 0 0 0
05-08-2019 33.3 (15:50) 14.5 (00:00) 23.9 11.11 (18:10) 7.78 (16:20) 0 0 0 0 0
04-08-2019 31 (16:10) 14.7 (00:00) 22.8 10.28 (18:00) 7.78 (18:00) 0 0 0 0 0
03-08-2019 29.7 (15:50) 15.3 (00:00) 22.5 8.89 (18:50) 6.67 (19:10) 0 0 0 0 0
02-08-2019 33.5 (14:10) 15.2 (00:00) 24.3 10 (19:00) 7.22 (18:00) 0 0 0 0 0
01-08-2019 32 (16:40) 18.7 (00:00) 25.4 10.83 (19:00) 8.33 (19:40) 0 0 0 0 0
31-07-2019 33 (16:20) 14.7 (00:00) 23.8 8.89 (17:30) 6.67 (14:40) 0 0 0 0 0
30-07-2019 34.6 (16:40) 16.4 (00:00) 25.5 9.72 (18:20) 7.5 (17:00) 0 0 0 0 0
29-07-2019 32 (15:30) 14.5 (00:00) 23.3 12.22 (18:00) 9.17 (18:00) 0 0 0 0 0
28-07-2019 27.2 (15:00) 15.4 (00:00) 21.3 9.72 (17:50) 7.5 (18:00) 0 0 0 0 0
27-07-2019 25.3 (14:50) 15.1 (00:00) 20.2 12.78 (18:30) 8.89 (16:20) 0 0 0 0 0
26-07-2019 28.8 (15:10) 19.3 (00:00) 24 13.33 (17:50) 10 (17:20) 0 0 0 0 0
25-07-2019 30.8 (16:50) 16 (00:00) 23.4 10 (18:10) 7.5 (18:10) 0 0 0 0 0
24-07-2019 31 (13:50) 18.9 (00:00) 24.9 9.17 (15:50) 7.22 (16:10) 0 0 0 0 0

Gráficas

Temp. máximas Temp. mínimas Temp. medias Precipitaciones Rachas de viento máximas Velocidades máximas media en intervalos de 10 minutos

Datos horarios

Fecha y hora oficial Temperatura (ºC) Velocidad del viento (km/h) Dirección del viento Racha (km/h) Dirección de racha Precipitación (mm) Presión (hPa) Tendencia (hPa) Humedad (%)
2019-08-22 23:00:00 26.9 4 Sudeste 17 Sudeste 0 -- -- 53
2019-08-22 22:00:00 28.7 7 Sudeste 23 Sur 0 -- -- 47
2019-08-22 21:00:00 31.4 13 Sur 27 Sur 0 -- -- 40
2019-08-22 20:00:00 34.4 16 Sur 30 Sudoeste 0 -- -- 32
2019-08-22 19:00:00 35.2 15 Sudoeste 24 Sudoeste 0 -- -- 35
2019-08-22 18:00:00 35.7 15 Sudoeste 32 Oeste 0 -- -- 35
2019-08-22 17:00:00 35.8 18 Sudoeste 32 Sudoeste 0 -- -- 35
2019-08-22 16:00:00 37 9 Sudeste 26 Este 0 -- -- 32
2019-08-22 15:00:00 35.6 10 Este 25 Este 0 -- -- 36
2019-08-22 14:00:00 33.8 11 Este 36 Nordeste 0 -- -- 40
2019-08-22 13:00:00 32.7 9 Nordeste 25 Nordeste 0 -- -- 43
2019-08-22 12:00:00 30.8 9 Nordeste 27 Nordeste 0 -- -- 47
2019-08-22 11:00:00 28.7 14 Nordeste 23 Nordeste 0 -- -- 55
2019-08-22 10:00:00 25.4 13 Nordeste 20 Nordeste 0 -- -- 70
2019-08-22 09:00:00 21 4 Nordeste 9 Nordeste 0 -- -- 86
2019-08-22 08:00:00 18.9 5 Nordeste 9 Este 0 -- -- 87
2019-08-22 07:00:00 18.6 4 Este 10 Este 0 -- -- 82
2019-08-22 06:00:00 20.4 4 Norte 10 Norte 0 -- -- 82
2019-08-22 05:00:00 20 4 Nordeste 8 Nordeste 0 -- -- 85
2019-08-22 04:00:00 19.9 3 Nordeste 6 Nordeste 0 -- -- 82
2019-08-22 03:00:00 21.3 4 Noroeste 8 Noroeste 0 -- -- 82
2019-08-22 02:00:00 21.9 3 Oeste 8 Noroeste 0 -- -- 79
2019-08-22 01:00:00 22.6 5 Noroeste 14 Noroeste 0 -- -- 79
2019-08-22 00:00:00 22.7 7 Oeste 12 Noroeste 0 -- -- 80
2019-08-21 23:00:00 23.6 7 Oeste 15 Oeste 0 -- -- 75
2019-08-21 22:00:00 24.5 12 Oeste 19 Oeste 0 -- -- 73
2019-08-21 21:00:00 25.9 15 Oeste 27 Oeste 0 -- -- 68
2019-08-21 20:00:00 28.1 20 Oeste 35 Oeste 0 -- -- 59
2019-08-21 19:00:00 29.4 24 Oeste 35 Sudoeste 0 -- -- 55
2019-08-21 18:00:00 30.4 25 Oeste 36 Sudoeste 0 -- -- 50
2019-08-21 17:00:00 31.7 26 Oeste 32 Sudoeste 0 -- -- 47
2019-08-21 16:00:00 34.9 22 Sudoeste 32 Sudoeste 0 -- -- 39
2019-08-21 15:00:00 35.8 5 Sudeste 21 Este 0 -- -- 34
2019-08-21 14:00:00 34.8 8 Sudeste 26 Sudeste 0 -- -- 34
2019-08-21 13:00:00 32.5 7 Este 17 Nordeste 0 -- -- 41
2019-08-21 12:00:00 29.7 8 Nordeste 22 Nordeste 0 -- -- 40
2019-08-21 11:00:00 26.5 10 Nordeste 19 Nordeste 0 -- -- 43
2019-08-21 10:00:00 22.4 10 Nordeste 15 Nordeste 0 -- -- 55
2019-08-21 09:00:00 18.1 6 Nordeste 13 Nordeste 0 -- -- 74
2019-08-21 08:00:00 16.5 5 Norte 10 Nordeste 0 -- -- 80
2019-08-21 07:00:00 16.3 4 Norte 15 Norte 0 -- -- 83
2019-08-21 06:00:00 15.7 5 Norte 12 Norte 0 -- -- 84
2019-08-21 05:00:00 15.4 0 Calma 9 Nordeste 0 -- -- 82
2019-08-21 04:00:00 15.5 6 Nordeste 8 Nordeste 0 -- -- 84
2019-08-21 03:00:00 16.3 5 Sur 10 Sudeste 0 -- -- 84
2019-08-21 02:00:00 16.4 9 Sur 12 Sur 0 -- -- 85
2019-08-21 01:00:00 16.3 2 Sudeste 5 Sur 0 -- -- 79
2019-08-21 00:00:00 17.9 3 Oeste 5 Oeste 0 -- -- 79
2019-08-20 23:00:00 18.9 0 Calma 12 Oeste 0 -- -- 75
2019-08-20 22:00:00 20.4 10 Oeste 24 Oeste 0 -- -- 71
2019-08-20 21:00:00 22.2 17 Oeste 29 Oeste 0 -- -- 66
2019-08-20 20:00:00 24.8 23 Sudoeste 30 Oeste 0 -- -- 55
2019-08-20 19:00:00 27.2 22 Sudoeste 27 Oeste 0 -- -- 47
2019-08-20 18:00:00 28 21 Sudoeste 30 Oeste 0 -- -- 48
2019-08-20 17:00:00 28.3 22 Sudoeste 30 Sudoeste 0 -- -- 45
2019-08-20 16:00:00 29.3 21 Oeste 28 Oeste 0 -- -- 37
2019-08-20 15:00:00 29.8 17 Sudoeste 26 Sudoeste 0 -- -- 38
2019-08-20 14:00:00 29.9 13 Sudoeste 21 Sudoeste 0 -- -- 32
2019-08-20 13:00:00 28.7 13 Sudoeste 21 Sudoeste 0 -- -- 37
2019-08-20 12:00:00 27.9 7 Sudoeste 15 Sur 0 -- -- 38
2019-08-20 11:00:00 24.9 4 Este 9 Sudeste 0 -- -- 42
2019-08-20 10:00:00 20.9 6 Noroeste 11 Noroeste 0 -- -- 50
2019-08-20 09:00:00 14.8 2 Sudoeste 4 Sudoeste 0 -- -- 74
2019-08-20 08:00:00 12.7 0 Calma 5 Sudeste 0 -- -- 75
2019-08-20 07:00:00 13.6 4 Sudoeste 10 Oeste 0 -- -- 72
2019-08-20 06:00:00 14.7 5 Oeste 8 Oeste 0 -- -- 69
2019-08-20 05:00:00 16.9 0 Calma 6 Noroeste 0 -- -- 60
2019-08-20 04:00:00 19.7 3 Norte 14 Oeste 0 -- -- 54
2019-08-20 03:00:00 20.1 8 Noroeste 13 Noroeste 0 -- -- 53
2019-08-20 02:00:00 18.7 2 Oeste 8 Oeste 0 -- -- 62
2019-08-20 01:00:00 20 7 Oeste 17 Sudoeste 0 -- -- 76
2019-08-20 00:00:00 21 13 Oeste 19 Sudoeste 0 -- -- 77
2019-08-19 23:00:00 21.6 13 Oeste 19 Oeste 0 -- -- 70
2019-08-19 22:00:00 22.3 14 Oeste 21 Sudoeste 0 -- -- 63
2019-08-19 21:00:00 23.9 17 Oeste 32 Oeste 0 -- -- 55
2019-08-19 20:00:00 25.5 23 Oeste 35 Oeste 0 -- -- 50
2019-08-19 19:00:00 27.2 24 Oeste 36 Oeste 0 -- -- 60
2019-08-19 18:00:00 28.7 25 Sudoeste 39 Oeste 0 -- -- 51
2019-08-19 17:00:00 29.7 26 Oeste 35 Oeste 0 -- -- 43
2019-08-19 16:00:00 30.1 27 Sudoeste 35 Sudoeste 0 -- -- 41
2019-08-19 15:00:00 30.1 23 Sudoeste 32 Sudoeste 0 -- -- 45
2019-08-19 14:00:00 29.5 22 Sudoeste 28 Sudoeste 0 -- -- 51
2019-08-19 13:00:00 29.9 16 Sudoeste 28 Sudoeste 0 -- -- 55
2019-08-19 12:00:00 29.4 14 Sudoeste 21 Oeste 0 -- -- 55
2019-08-19 11:00:00 26.4 3 Este 9 Sudeste 0 -- -- 62
2019-08-19 10:00:00 22.8 3 Norte 10 Noroeste 0 -- -- 76
2019-08-19 09:00:00 19 0 Calma 6 Oeste 0 -- -- 95
2019-08-19 08:00:00 17.1 5 Sudoeste 7 Sur 0 -- -- 93
2019-08-19 07:00:00 17.3 3 Sur 8 Sudeste 0 -- -- 93
2019-08-19 06:00:00 17.6 4 Sudoeste 8 Sudoeste 0 -- -- 90
2019-08-19 05:00:00 18.2 4 Sudoeste 7 Sur 0 -- -- 91
2019-08-19 04:00:00 18.5 5 Sur 8 Sur 0 -- -- 87
2019-08-19 03:00:00 19.4 2 Sudoeste 7 Noroeste 0 -- -- 84
2019-08-19 02:00:00 19.9 0 Calma 9 Oeste 0 -- -- 85
2019-08-19 01:00:00 21 8 Oeste 17 Oeste 0 -- -- 87
2019-08-19 00:00:00 21.2 11 Sudoeste 14 Sudoeste 0 -- -- 84
2019-08-18 23:00:00 21.7 9 Sudoeste 17 Oeste 0 -- -- 82
2019-08-18 22:00:00 22.4 12 Sudoeste 22 Sudoeste 0 -- -- 80
2019-08-18 21:00:00 24.2 16 Sudoeste 30 Sudoeste 0 -- -- 69
2019-08-18 20:00:00 26.1 23 Sudoeste 35 Sudoeste 0 -- -- 59
2019-08-18 19:00:00 27.7 27 Oeste 36 Sudoeste 0 -- -- 53
2019-08-18 18:00:00 28.4 27 Sudoeste 39 Oeste 0 -- -- 53
2019-08-18 17:00:00 29.2 26 Sudoeste 35 Sudoeste 0 -- -- 53
2019-08-18 16:00:00 30.5 24 Sudoeste 31 Sudoeste 0 -- -- 48
2019-08-18 15:00:00 29.7 23 Sudoeste 31 Sudoeste 0 -- -- 49
2019-08-18 14:00:00 29.5 21 Sudoeste 30 Sur 0 -- -- 50
2019-08-18 13:00:00 29.4 21 Sur 28 Sur 0 -- -- 53
2019-08-18 12:00:00 28 20 Sudoeste 27 Sudoeste 0 -- -- 55
2019-08-18 11:00:00 26.9 12 Sudoeste 19 Sur 0 -- -- 55
2019-08-18 10:00:00 21.5 0 Calma 5 Nordeste 0 -- -- 69
2019-08-18 09:00:00 17.2 0 Calma 6 Noroeste 0 -- -- 82
2019-08-18 08:00:00 15.2 0 Calma 7 Oeste 0 -- -- 84
2019-08-18 07:00:00 15.8 4 Oeste 8 Oeste 0 -- -- 83
2019-08-18 06:00:00 17 5 Oeste 6 Oeste 0 -- -- 85
2019-08-18 05:00:00 17.9 0 Calma 5 Oeste 0 -- -- 81
2019-08-18 04:00:00 18.9 2 Oeste 4 Sudoeste 0 -- -- 82
2019-08-18 03:00:00 19 5 Sudoeste 7 Sudoeste 0 -- -- 84
2019-08-18 02:00:00 20.1 0 Calma 10 Sudoeste 0 -- -- 82
2019-08-18 01:00:00 20.8 9 Sudoeste 12 Sudoeste 0 -- -- 80
2019-08-18 00:00:00 21.5 9 Sudoeste 14 Sudoeste 0 -- -- 74
2019-08-17 23:00:00 22.9 12 Sudoeste 16 Oeste 0 -- -- 69
2019-08-17 22:00:00 24.7 13 Oeste 24 Oeste 0 -- -- 54
2019-08-17 21:00:00 26.9 16 Oeste 28 Oeste 0 -- -- 49
2019-08-17 20:00:00 29.9 19 Oeste 28 Oeste 0 -- -- 41
2019-08-17 19:00:00 32.8 21 Oeste 31 Oeste 0 -- -- 34
2019-08-17 18:00:00 34.3 23 Oeste 31 Oeste 0 -- -- 29
2019-08-17 17:00:00 34.8 22 Oeste 30 Oeste 0 -- -- 30
2019-08-17 16:00:00 34.1 22 Sudoeste 28 Oeste 0 -- -- 33
2019-08-17 15:00:00 34.6 19 Sudoeste 24 Sudoeste 0 -- -- 31
2019-08-17 14:00:00 34.9 16 Sudoeste 24 Sudoeste 0 -- -- 30
2019-08-17 13:00:00 35.3 10 Sur 16 Sur 0 -- -- 34
2019-08-17 12:00:00 32.1 3 Sudeste 14 Sudeste 0 -- -- 41
2019-08-17 11:00:00 27.7 5 Nordeste 13 Sudeste 0 -- -- 53
2019-08-17 10:00:00 23.2 7 Nordeste 12 Nordeste 0 -- -- 67
2019-08-17 09:00:00 18.3 5 Nordeste 8 Nordeste 0 -- -- 80
2019-08-17 08:00:00 16.3 5 Norte 11 Norte 0 -- -- 81
2019-08-17 07:00:00 16.9 3 Nordeste 10 Noroeste 0 -- -- 79
2019-08-17 06:00:00 19 6 Noroeste 10 Oeste 0 -- -- 90
2019-08-17 05:00:00 18.7 9 Oeste 11 Oeste 0 -- -- 90
2019-08-17 04:00:00 17.9 6 Sudoeste 8 Oeste 0 -- -- 89
2019-08-17 03:00:00 17.7 6 Sudoeste 8 Sur 0 -- -- 86
2019-08-17 02:00:00 18.1 4 Sur 8 Sur 0 -- -- 80
2019-08-17 01:00:00 19.5 0 Calma 8 Oeste 0 -- -- 81
2019-08-17 00:00:00 20.8 8 Oeste 9 Oeste 0 -- -- 82
2019-08-16 23:00:00 21.6 6 Sudoeste 15 Oeste 0 -- -- 67
2019-08-16 22:00:00 23.7 12 Oeste 24 Oeste 0 -- -- 63
2019-08-16 21:00:00 26.4 16 Oeste 28 Oeste 0 -- -- 54
2019-08-16 20:00:00 30.2 22 Oeste 30 Oeste 0 -- -- 41
2019-08-16 19:00:00 33 23 Oeste 32 Oeste 0 -- -- 32
2019-08-16 18:00:00 34.2 26 Oeste 35 Oeste 0 -- -- 30
2019-08-16 17:00:00 34.6 25 Oeste 35 Oeste 0 -- -- 30
2019-08-16 16:00:00 33.6 25 Oeste 34 Sudoeste 0 -- -- 32
2019-08-16 15:00:00 33.9 23 Sudoeste 30 Oeste 0 -- -- 31
2019-08-16 14:00:00 33.7 18 Sudoeste 28 Sudoeste 0 -- -- 32
2019-08-16 13:00:00 33.2 17 Sudoeste 26 Sudoeste 0 -- -- 33
2019-08-16 12:00:00 32.6 13 Sur 21 Sur 0 -- -- 34
2019-08-16 11:00:00 27.4 2 Oeste 8 Nordeste 0 -- -- 54
2019-08-16 10:00:00 23.2 4 Nordeste 8 Norte 0 -- -- 71
2019-08-16 09:00:00 18.8 0 Calma 4 Norte 0 -- -- 89
2019-08-16 08:00:00 18.3 4 Norte 8 Norte 0 -- -- 88
2019-08-16 07:00:00 19.7 8 Oeste 10 Sudoeste 0 -- -- 91
2019-08-16 06:00:00 19.8 9 Sudoeste 13 Sudoeste 0 -- -- 87
2019-08-16 05:00:00 20.7 10 Sudoeste 13 Sudoeste 0 -- -- 84
2019-08-16 04:00:00 20.6 9 Sudoeste 14 Sur 0 -- -- 83
2019-08-16 03:00:00 20.7 10 Sur 14 Sur 0 -- -- 85
2019-08-16 02:00:00 19.6 6 Sur 9 Sur 0 -- -- 83
2019-08-16 01:00:00 19.8 8 Sudoeste 10 Sudoeste 0 -- -- 81
2019-08-16 00:00:00 20.8 8 Sudoeste 9 Sudoeste 0 -- -- 76
2019-08-15 23:00:00 22.4 5 Sudoeste 17 Oeste 0 -- -- 71
2019-08-15 22:00:00 23.6 13 Oeste 23 Oeste 0 -- -- 65
2019-08-15 21:00:00 26.4 18 Oeste 32 Oeste 0 -- -- 56
2019-08-15 20:00:00 30.3 21 Oeste 31 Oeste 0 -- -- 44
2019-08-15 19:00:00 32.6 22 Oeste 30 Sudoeste 0 -- -- 39
2019-08-15 18:00:00 33.3 23 Oeste 30 Oeste 0 -- -- 37
2019-08-15 17:00:00 34.1 22 Oeste 32 Oeste 0 -- -- 37
2019-08-15 16:00:00 33.4 23 Oeste 30 Oeste 0 -- -- 40
2019-08-15 15:00:00 33.3 23 Sudoeste 29 Sudoeste 0 -- -- 44
2019-08-15 14:00:00 33.3 17 Oeste 24 Oeste 0 -- -- 43
2019-08-15 13:00:00 33.1 13 Oeste 19 Sudoeste 0 -- -- 43
2019-08-15 12:00:00 31 5 Oeste 11 Sur 0 -- -- 47
2019-08-15 11:00:00 27.4 3 Sudoeste 7 Sudoeste 0 -- -- 59
2019-08-15 10:00:00 23.3 5 Nordeste 8 Nordeste 0 -- -- 71
2019-08-15 09:00:00 18.7 5 Nordeste 8 Nordeste 0 -- -- 88
2019-08-15 08:00:00 17.1 4 Nordeste 8 Norte 0 -- -- 89
2019-08-15 07:00:00 17.8 4 Norte 9 Nordeste 0 -- -- 90
2019-08-15 06:00:00 17 4 Nordeste 9 Norte 0 -- -- 91
2019-08-15 05:00:00 19.7 3 Sudoeste 9 Sudoeste 0 -- -- 90
2019-08-15 04:00:00 19.7 8 Sudoeste 13 Sudoeste 0 -- -- 88
2019-08-15 03:00:00 20.5 9 Sur 16 Sur 0 -- -- 86
2019-08-15 02:00:00 20.8 9 Sudoeste 15 Sur 0 -- -- 83
2019-08-15 01:00:00 20.3 8 Sudoeste 12 Sur 0 -- -- 86
2019-08-15 00:00:00 20.9 10 Sur 13 Sur 0 -- -- 82
2019-08-14 23:00:00 22.8 12 Oeste 23 Oeste 0 -- -- 75
2019-08-14 22:00:00 23.9 16 Oeste 30 Oeste 0 -- -- 71
2019-08-14 21:00:00 25.5 21 Oeste 33 Oeste 0 -- -- 67
2019-08-14 20:00:00 29.2 22 Oeste 30 Oeste 0 -- -- 56
2019-08-14 19:00:00 31.8 23 Oeste 30 Sudoeste 0 -- -- 46
2019-08-14 18:00:00 32.8 23 Oeste 34 Oeste 0 -- -- 45
2019-08-14 17:00:00 33.9 25 Oeste 32 Sudoeste 0 -- -- 40
2019-08-14 16:00:00 34.8 23 Sudoeste 30 Sudoeste 0 -- -- 38
2019-08-14 15:00:00 34.2 18 Oeste 27 Oeste 0 -- -- 40
2019-08-14 14:00:00 34.5 5 Este 17 Este 0 -- -- 31
2019-08-14 13:00:00 32.9 8 Este 17 Este 0 -- -- 43
2019-08-14 12:00:00 30.7 8 Este 18 Nordeste 0 -- -- 51
2019-08-14 11:00:00 27.2 9 Nordeste 17 Nordeste 0 -- -- 53
2019-08-14 10:00:00 23.1 8 Nordeste 13 Nordeste 0 -- -- 59
2019-08-14 09:00:00 18.3 7 Nordeste 12 Nordeste 0 -- -- 74
2019-08-14 08:00:00 16.8 5 Norte 10 Norte 0 -- -- 76
2019-08-14 07:00:00 16.7 4 Norte 10 Nordeste 0 -- -- 76
2019-08-14 06:00:00 18 2 Oeste 7 Oeste 0 -- -- 82
2019-08-14 05:00:00 18 7 Sudoeste 12 Sudoeste 0 -- -- 82
2019-08-14 04:00:00 17.5 10 Sudoeste 12 Sudoeste 0 -- -- 86
2019-08-14 03:00:00 17.6 10 Sudoeste 12 Sudoeste 0 -- -- 86
2019-08-14 02:00:00 17.5 7 Sudoeste 12 Sur 0 -- -- 86
2019-08-14 01:00:00 17 7 Sudoeste 14 Sur 0 -- -- 81
2019-08-14 00:00:00 17.5 8 Sudoeste 12 Sur 0 -- -- 76
2019-08-13 23:00:00 19.6 7 Sur 13 Sudoeste 0 -- -- 68
2019-08-13 22:00:00 21.9 12 Sudoeste 22 Oeste 0 -- -- 60
2019-08-13 21:00:00 25.1 16 Oeste 25 Oeste 0 -- -- 47
2019-08-13 20:00:00 30 17 Oeste 29 Sudoeste 0 -- -- 34
2019-08-13 19:00:00 31.1 21 Sudoeste 30 Sudoeste 0 -- -- 38
2019-08-13 18:00:00 32.5 23 Sudoeste 31 Sudoeste 0 -- -- 32
2019-08-13 17:00:00 33.3 22 Sudoeste 30 Sudoeste 0 -- -- 28
2019-08-13 16:00:00 32.9 23 Sudoeste 29 Oeste 0 -- -- 36
2019-08-13 15:00:00 32.5 21 Sudoeste 28 Oeste 0 -- -- 34
2019-08-13 14:00:00 32.4 19 Sudoeste 25 Sudoeste 0 -- -- 24
2019-08-13 13:00:00 32.1 13 Sudoeste 22 Sudoeste 0 -- -- 22
2019-08-13 12:00:00 30 5 Este 11 Sur 0 -- -- 24
2019-08-13 11:00:00 25.7 3 Sudeste 8 Sur 0 -- -- 31
2019-08-13 10:00:00 20.4 4 Sudeste 11 Sur 0 -- -- 50
2019-08-13 09:00:00 16 0 Calma 10 Noroeste 0 -- -- 65
2019-08-13 08:00:00 13.2 5 Noroeste 13 Noroeste 0 -- -- 70
2019-08-13 07:00:00 13.9 9 Noroeste 13 Noroeste 0 -- -- 62
2019-08-13 06:00:00 12.1 5 Norte 10 Norte 0 -- -- 61
2019-08-13 05:00:00 15.4 5 Noroeste 13 Sudoeste 0 -- -- 44
2019-08-13 04:00:00 14.5 4 Norte 10 Sudoeste 0 -- -- 67
2019-08-13 03:00:00 16.7 0 Calma 9 Este 0 -- -- 68
2019-08-13 02:00:00 20.1 3 Este 14 Noroeste 0 -- -- 53
2019-08-13 01:00:00 20.1 8 Noroeste 15 Norte 0 -- -- 47
2019-08-13 00:00:00 19.1 7 Noroeste 10 Noroeste 0 -- -- 63
2019-08-12 23:00:00 18.8 5 Oeste 13 Sudoeste 0 -- -- 70
2019-08-12 22:00:00 19.9 12 Sudoeste 19 Sudoeste 0 -- -- 66
2019-08-12 21:00:00 21.6 14 Sudoeste 31 Sudoeste 0 -- -- 62
2019-08-12 20:00:00 23.6 23 Sudoeste 33 Sudoeste 0 -- -- 56
2019-08-12 19:00:00 25.2 25 Oeste 35 Sudoeste 0 -- -- 51
2019-08-12 18:00:00 27.4 27 Sudoeste 36 Sudoeste 0 -- -- 44
2019-08-12 17:00:00 30.9 24 Sudoeste 35 Oeste 0 -- -- 25
2019-08-12 16:00:00 30.5 28 Oeste 35 Oeste 0 -- -- 29
2019-08-12 15:00:00 30.7 25 Oeste 36 Oeste 0 -- -- 30
2019-08-12 14:00:00 31 10 Norte 24 Nordeste 0 -- -- 20
2019-08-12 13:00:00 29.7 12 Norte 30 Nordeste 0 -- -- 23
2019-08-12 12:00:00 27.2 11 Norte 31 Nordeste 0 -- -- 30
2019-08-12 11:00:00 23.9 12 Nordeste 24 Nordeste 0 -- -- 40
2019-08-12 10:00:00 20.9 8 Norte 19 Norte 0 -- -- 49
2019-08-12 09:00:00 17.8 5 Noroeste 15 Noroeste 0 -- -- 60
2019-08-12 08:00:00 15.9 4 Noroeste 9 Oeste 0 -- -- 65
2019-08-12 07:00:00 16.5 2 Noroeste 10 Norte 0 -- -- 60
2019-08-12 06:00:00 18.2 2 Norte 8 Norte 0 -- -- 54
2019-08-12 05:00:00 19.1 0 Calma 12 Noroeste 0 -- -- 51
2019-08-12 04:00:00 19.5 3 Noroeste 14 Noroeste 0 -- -- 49
2019-08-12 03:00:00 19.2 5 Noroeste 12 Noroeste 0 -- -- 48
2019-08-12 02:00:00 19.2 6 Noroeste 13 Noroeste 0 -- -- 48
2019-08-12 01:00:00 17.8 7 Noroeste 11 Noroeste 0 -- -- 49
2019-08-12 00:00:00 17.6 5 Oeste 9 Noroeste 0 -- -- 48
2019-08-11 23:00:00 19 5 Oeste 10 Oeste 0 -- -- 48
2019-08-11 22:00:00 21.1 6 Oeste 24 Oeste 0 -- -- 55
2019-08-11 21:00:00 22.8 21 Oeste 40 Oeste 0 -- -- 60
2019-08-11 20:00:00 25.6 28 Oeste 39 Oeste 0 -- -- 51
2019-08-11 19:00:00 25.9 28 Oeste 42 Oeste 0 -- -- 48
2019-08-11 18:00:00 27.6 27 Oeste 45 Oeste 0 -- -- 42
2019-08-11 17:00:00 28 30 Oeste 45 Oeste 0 -- -- 44
2019-08-11 16:00:00 33.1 23 Oeste 33 Oeste 0 -- -- 28
2019-08-11 15:00:00 32.7 13 Noroeste 30 Oeste 0 -- -- 21
2019-08-11 14:00:00 30.5 12 Noroeste 27 Noroeste 0 -- -- 23
2019-08-11 13:00:00 28.5 11 Noroeste 20 Norte 0 -- -- 25
2019-08-11 12:00:00 26.8 11 Noroeste 23 Norte 0 -- -- 31
2019-08-11 11:00:00 23.7 8 Norte 19 Noroeste 0 -- -- 43
2019-08-11 10:00:00 21.4 9 Noroeste 21 Noroeste 0 -- -- 50
2019-08-11 09:00:00 18.5 4 Norte 11 Norte 0 -- -- 61
2019-08-11 08:00:00 15.7 0 Calma 6 Este 0 -- -- 69
2019-08-11 07:00:00 17.4 4 Nordeste 17 Noroeste 0 -- -- 64
2019-08-11 06:00:00 18.9 6 Noroeste 21 Noroeste 0 -- -- 61
2019-08-11 05:00:00 19.1 4 Norte 15 Norte 0 -- -- 62
2019-08-11 04:00:00 21.1 5 Noroeste 23 Noroeste 0 -- -- 56
2019-08-11 03:00:00 22 8 Noroeste 25 Noroeste 0 -- -- 54
2019-08-11 02:00:00 22.2 12 Noroeste 22 Oeste 0 -- -- 55
2019-08-11 01:00:00 22 11 Noroeste 23 Noroeste 0 -- -- 58
2019-08-11 00:00:00 21 10 Oeste 19 Sudoeste 0 -- -- 69
2019-08-10 23:00:00 21.1 13 Sudoeste 18 Sudoeste 0 -- -- 79
2019-08-10 22:00:00 22.2 13 Oeste 24 Oeste 0 -- -- 69
2019-08-10 21:00:00 24 20 Oeste 35 Oeste 0 -- -- 60
2019-08-10 20:00:00 26 24 Oeste 38 Sudoeste 0 -- -- 50
2019-08-10 19:00:00 27.3 29 Oeste 37 Oeste 0 -- -- 46
2019-08-10 18:00:00 30.8 24 Oeste 35 Sudoeste 0 -- -- 39
2019-08-10 17:00:00 32.2 24 Oeste 32 Sudoeste 0 -- -- 35
2019-08-10 16:00:00 32.5 23 Sudoeste 33 Oeste 0 -- -- 37
2019-08-10 15:00:00 32.4 23 Oeste 32 Sudoeste 0 -- -- 39
2019-08-10 14:00:00 32.3 21 Oeste 26 Oeste 0 -- -- 42
2019-08-10 13:00:00 32 9 Sudoeste 20 Sudoeste 0 -- -- 44
2019-08-10 12:00:00 30.3 5 Este 17 Nordeste 0 -- -- 49
2019-08-10 11:00:00 27.3 11 Nordeste 19 Nordeste 0 -- -- 60
2019-08-10 10:00:00 24.3 6 Norte 14 Norte 0 -- -- 71
2019-08-10 09:00:00 19.2 2 Norte 7 Norte 0 -- -- 88
2019-08-10 08:00:00 17.2 0 Calma 4 Norte 0 -- -- 90
2019-08-10 07:00:00 18 0 Calma 8 Noroeste 0 -- -- 87
2019-08-10 06:00:00 19.4 5 Noroeste 12 Oeste 0 -- -- 86
2019-08-10 05:00:00 18.9 5 Oeste 8 Oeste 0 -- -- 93
2019-08-10 04:00:00 19.1 4 Sudoeste 6 Sudoeste 0 -- -- 92
2019-08-10 03:00:00 19.7 3 Sudoeste 6 Sudoeste 0 -- -- 90
2019-08-10 02:00:00 20.6 3 Sudoeste 11 Oeste 0 -- -- 89
2019-08-10 01:00:00 21.4 8 Oeste 18 Sudoeste 0 -- -- 88
2019-08-10 00:00:00 22.1 14 Oeste 30 Oeste 0 -- -- 86
2019-08-09 23:00:00 22.3 19 Oeste 35 Oeste 0 -- -- 88
2019-08-09 22:00:00 22.5 21 Oeste 33 Oeste 0 -- -- 88
2019-08-09 21:00:00 23.7 22 Oeste 36 Oeste 0 -- -- 84
2019-08-09 20:00:00 25.1 26 Oeste 36 Oeste 0 -- -- 78
2019-08-09 19:00:00 25.2 26 Oeste 39 Sudoeste 0 -- -- 78
2019-08-09 18:00:00 26.9 27 Sudoeste 43 Oeste 0 -- -- 71
2019-08-09 17:00:00 27.9 30 Sudoeste 41 Sudoeste 0 -- -- 67
2019-08-09 16:00:00 28 29 Sudoeste 38 Sudoeste 0 -- -- 65
2019-08-09 15:00:00 28.9 26 Sudoeste 34 Sudoeste 0 -- -- 59
2019-08-09 14:00:00 29.1 23 Sudoeste 30 Oeste 0 -- -- 59
2019-08-09 13:00:00 28 22 Sudoeste 30 Oeste 0 -- -- 63
2019-08-09 12:00:00 27.9 19 Sudoeste 26 Sudoeste 0 -- -- 62
2019-08-09 11:00:00 26.6 14 Oeste 20 Sudoeste 0 -- -- 67
2019-08-09 10:00:00 24 9 Oeste 17 Oeste 0 -- -- 79
2019-08-09 09:00:00 21.3 12 Oeste 18 Oeste 0 -- -- 95
2019-08-09 08:00:00 19.4 8 Oeste 11 Sudoeste 0 -- -- 95
2019-08-09 07:00:00 19.9 9 Oeste 14 Oeste 0 -- -- 94
2019-08-09 06:00:00 19.9 9 Oeste 15 Oeste 0 -- -- 93
2019-08-09 05:00:00 20.2 9 Oeste 15 Oeste 0 -- -- 92
2019-08-09 04:00:00 20.5 10 Oeste 16 Oeste 0 -- -- 92
2019-08-09 03:00:00 21 12 Oeste 17 Oeste 0 -- -- 93
2019-08-09 02:00:00 20.8 8 Sudoeste 18 Oeste 0 -- -- 91
2019-08-09 01:00:00 21.4 15 Oeste 23 Oeste 0 -- -- 90
2019-08-09 00:00:00 21.7 20 Oeste 30 Oeste 0 -- -- 87
2019-08-08 23:00:00 21.9 12 Oeste 26 Oeste 0 -- -- 85
2019-08-08 22:00:00 22.3 15 Oeste 24 Oeste 0 -- -- 82
2019-08-08 21:00:00 23.8 20 Oeste 30 Oeste 0 -- -- 75
2019-08-08 20:00:00 26.6 23 Oeste 34 Oeste 0 -- -- 60
2019-08-08 19:00:00 28.4 23 Oeste 34 Oeste 0 -- -- 51
2019-08-08 18:00:00 30.1 28 Oeste 38 Sudoeste 0 -- -- 48
2019-08-08 17:00:00 31.5 28 Sudoeste 36 Oeste 0 -- -- 44
2019-08-08 16:00:00 32.8 25 Sudoeste 35 Oeste 0 -- -- 40
2019-08-08 15:00:00 32.8 24 Sudoeste 33 Sudoeste 0 -- -- 38
2019-08-08 14:00:00 33.2 20 Sudoeste 25 Sudoeste 0 -- -- 40
2019-08-08 13:00:00 33 15 Sudoeste 26 Sudoeste 0 -- -- 39
2019-08-08 12:00:00 31.7 4 Oeste 12 Nordeste 0 -- -- 39
2019-08-08 11:00:00 28.6 7 Este 14 Este 0 -- -- 47
2019-08-08 10:00:00 24.2 5 Nordeste 11 Nordeste 0 -- -- 60
2019-08-08 09:00:00 18.2 0 Calma 6 Nordeste 0 -- -- 87
2019-08-08 08:00:00 15.7 2 Nordeste 9 Sudeste 0 -- -- 88
2019-08-08 07:00:00 16.6 3 Este 9 Noroeste 0 -- -- 82
2019-08-08 06:00:00 17.1 4 Norte 8 Norte 0 -- -- 84
2019-08-08 05:00:00 18.9 4 Noroeste 12 Noroeste 0 -- -- 79
2019-08-08 04:00:00 19.2 6 Oeste 12 Oeste 0 -- -- 82
2019-08-08 03:00:00 19.7 8 Oeste 13 Oeste 0 -- -- 87
2019-08-08 02:00:00 21 10 Oeste 17 Oeste 0 -- -- 86
2019-08-08 01:00:00 21.5 12 Oeste 15 Sudoeste 0 -- -- 86
2019-08-08 00:00:00 22 12 Oeste 16 Oeste 0 -- -- 85
2019-08-07 23:00:00 23.1 11 Sudoeste 21 Oeste 0 -- -- 78
2019-08-07 22:00:00 23.5 14 Oeste 24 Oeste 0 -- -- 74
2019-08-07 21:00:00 24.1 17 Oeste 35 Oeste 0 -- -- 71
2019-08-07 20:00:00 24.8 24 Oeste 37 Oeste 0 -- -- 68
2019-08-07 19:00:00 25.2 25 Oeste 33 Sudoeste 0 -- -- 69
2019-08-07 18:00:00 27.4 22 Oeste 31 Oeste 0 -- -- 61
2019-08-07 17:00:00 29.7 24 Oeste 32 Oeste 0 -- -- 51
2019-08-07 16:00:00 28.5 22 Sudoeste 31 Sudoeste 0 -- -- 57
2019-08-07 15:00:00 28.8 19 Sudoeste 24 Sudoeste 0 -- -- 52
2019-08-07 14:00:00 28.7 19 Sudoeste 26 Sudoeste 0 -- -- 54
2019-08-07 13:00:00 30.7 16 Sudoeste 22 Oeste 0 -- -- 48
2019-08-07 12:00:00 29.2 11 Sur 22 Sudoeste 0 -- -- 54
2019-08-07 11:00:00 26.8 4 Sudoeste 9 Noroeste 0 -- -- 58
2019-08-07 10:00:00 22.5 4 Noroeste 9 Noroeste 0 -- -- 73
2019-08-07 09:00:00 18.7 3 Oeste 7 Oeste 0 -- -- 91
2019-08-07 08:00:00 16.6 0 Calma 6 Noroeste 0 -- -- 88
2019-08-07 07:00:00 17.9 5 Oeste 8 Oeste 0 -- -- 87
2019-08-07 06:00:00 18.7 3 Sudeste 14 Oeste 0 -- -- 87
2019-08-07 05:00:00 20.2 9 Oeste 15 Oeste 0 -- -- 85
2019-08-07 04:00:00 19.8 7 Oeste 12 Oeste 0 -- -- 91
2019-08-07 03:00:00 20.3 5 Sudoeste 13 Sudoeste 0 -- -- 90
2019-08-07 02:00:00 19.9 9 Sudoeste 10 Sudoeste 0 -- -- 87
2019-08-07 01:00:00 19.7 7 Sudoeste 12 Sudoeste 0 -- -- 84
2019-08-07 00:00:00 21.4 6 Sudoeste 17 Oeste 0 -- -- 77
2019-08-06 23:00:00 22.2 13 Oeste 17 Oeste 0 -- -- 74
2019-08-06 22:00:00 22.7 11 Oeste 21 Oeste 0 -- -- 74
2019-08-06 21:00:00 25.4 17 Oeste 31 Oeste 0 -- -- 59
2019-08-06 20:00:00 28.2 19 Oeste 34 Oeste 0 -- -- 46
2019-08-06 19:00:00 28.8 26 Oeste 33 Oeste 0 -- -- 47
2019-08-06 18:00:00 30.2 22 Oeste 32 Sudoeste 0 -- -- 47
2019-08-06 17:00:00 29.5 24 Oeste 33 Sudoeste 0 -- -- 49
2019-08-06 16:00:00 30.4 23 Sudoeste 30 Sudoeste 0 -- -- 47
2019-08-06 15:00:00 31.1 23 Sudoeste 30 Oeste 0 -- -- 45
2019-08-06 14:00:00 32.9 15 Sudoeste 30 Sur 0 -- -- 30
2019-08-06 13:00:00 32.6 10 Sur 20 Sur 0 -- -- 27
2019-08-06 12:00:00 29.7 8 Sur 17 Sur 0 -- -- 37
2019-08-06 11:00:00 25.4 4 Oeste 15 Sudoeste 0 -- -- 70
2019-08-06 10:00:00 21.8 10 Sur 20 Sudoeste 0 -- -- 95
2019-08-06 09:00:00 19.8 10 Sur 18 Sur 0 -- -- 98
2019-08-06 08:00:00 17.1 0 Calma 4 Sudeste 0 -- -- 97
2019-08-06 07:00:00 16.8 4 Sur 8 Sur 0 -- -- 96
2019-08-06 06:00:00 16.8 3 Sur 10 Sudeste 0 -- -- 95
2019-08-06 05:00:00 17.2 4 Sudeste 12 Sudeste 0 -- -- 92
2019-08-06 04:00:00 18.8 8 Oeste 12 Sudoeste 0 -- -- 94
2019-08-06 03:00:00 19 9 Sudoeste 14 Sudoeste 0 -- -- 93
2019-08-06 02:00:00 18 8 Sudoeste 12 Sudoeste 0 -- -- 92
2019-08-06 01:00:00 17.2 6 Sudoeste 10 Sur 0 -- -- 88
2019-08-06 00:00:00 18.8 4 Sur 10 Sudoeste 0 -- -- 82
2019-08-05 23:00:00 19.8 4 Sur 14 Sudoeste 0 -- -- 78
2019-08-05 22:00:00 21.3 10 Sudoeste 21 Sudoeste 0 -- -- 71
2019-08-05 21:00:00 24.4 16 Sudoeste 29 Sudoeste 0 -- -- 61
2019-08-05 20:00:00 28 21 Sudoeste 34 Oeste 0 -- -- 45
2019-08-05 19:00:00 29.1 26 Oeste 40 Oeste 0 -- -- 42
2019-08-05 18:00:00 30.1 28 Oeste 39 Oeste 0 -- -- 41
2019-08-05 17:00:00 31.5 27 Oeste 39 Oeste 0 -- -- 37
2019-08-05 16:00:00 33.3 27 Oeste 36 Sudoeste 0 -- -- 24
2019-08-05 15:00:00 32.3 24 Sudoeste 31 Sudoeste 0 -- -- 33
2019-08-05 14:00:00 32.5 18 Sudoeste 24 Sudoeste 0 -- -- 39
2019-08-05 13:00:00 31.8 18 Sudoeste 24 Sudoeste 0 -- -- 43
2019-08-05 12:00:00 31.5 7 Sudoeste 14 Sudoeste 0 -- -- 40
2019-08-05 11:00:00 28 3 Noroeste 9 Nordeste 0 -- -- 46
2019-08-05 10:00:00 23.3 3 Nordeste 8 Norte 0 -- -- 58
2019-08-05 09:00:00 18.2 5 Noroeste 9 Noroeste 0 -- -- 75
2019-08-05 08:00:00 14.5 0 Calma 4 Oeste 0 -- -- 82
2019-08-05 07:00:00 15.8 0 Calma 6 Sudeste 0 -- -- 79
2019-08-05 06:00:00 18.1 0 Calma 11 Oeste 0 -- -- 72
2019-08-05 05:00:00 19.8 7 Noroeste 14 Oeste 0 -- -- 69
2019-08-05 04:00:00 19 6 Oeste 12 Noroeste 0 -- -- 73
2019-08-05 03:00:00 18.9 6 Oeste 11 Oeste 0 -- -- 75
2019-08-05 02:00:00 20.1 7 Oeste 9 Oeste 0 -- -- 86
2019-08-05 01:00:00 20.9 7 Oeste 15 Sudoeste 0 -- -- 82
2019-08-05 00:00:00 22.1 11 Sudoeste 17 Sudoeste 0 -- -- 76
2019-08-04 23:00:00 22.5 12 Sudoeste 18 Oeste 0 -- -- 70
2019-08-04 22:00:00 24.2 13 Oeste 28 Oeste 0 -- -- 57
2019-08-04 21:00:00 25.9 21 Oeste 32 Oeste 0 -- -- 57
2019-08-04 20:00:00 27.7 24 Oeste 36 Oeste 0 -- -- 52
2019-08-04 19:00:00 27.7 28 Oeste 36 Sudoeste 0 -- -- 52
2019-08-04 18:00:00 28.7 28 Sudoeste 37 Sudoeste 0 -- -- 52
2019-08-04 17:00:00 29.1 26 Oeste 33 Sudoeste 0 -- -- 50
2019-08-04 16:00:00 30.8 22 Sudoeste 30 Sudoeste 0 -- -- 46
2019-08-04 15:00:00 30.3 20 Sudoeste 27 Sudoeste 0 -- -- 48
2019-08-04 14:00:00 29.3 18 Sudoeste 27 Oeste 0 -- -- 51
2019-08-04 13:00:00 28.9 14 Sudoeste 25 Sudoeste 0 -- -- 52
2019-08-04 12:00:00 28.5 12 Sudoeste 20 Sur 0 -- -- 52
2019-08-04 11:00:00 25.9 3 Sur 12 Oeste 0 -- -- 63
2019-08-04 10:00:00 22.1 3 Oeste 8 Noroeste 0 -- -- 76
2019-08-04 09:00:00 19.2 2 Norte 6 Sur 0 -- -- 96
2019-08-04 08:00:00 18.6 4 Sudoeste 9 Sudoeste 0 -- -- 95
2019-08-04 07:00:00 19.1 7 Sudoeste 10 Sudoeste 0 -- -- 94
2019-08-04 06:00:00 20.4 9 Sudoeste 19 Sur 0 -- -- 95
2019-08-04 05:00:00 20.2 9 Sur 16 Sudoeste 0 -- -- 95
2019-08-04 04:00:00 20 10 Sudoeste 15 Sudoeste 0 -- -- 95
2019-08-04 03:00:00 18.4 9 Sudoeste 15 Sudoeste 0 -- -- 96
2019-08-04 02:00:00 15.7 7 Sudoeste 14 Sudoeste 0 -- -- 93
2019-08-04 01:00:00 15.2 5 Sur 7 Sur 0 -- -- 78
2019-08-04 00:00:00 17 0 Calma 6 Sudoeste 0 -- -- 80
2019-08-03 23:00:00 19.7 5 Sudoeste 17 Oeste 0 -- -- 77
2019-08-03 22:00:00 21.4 13 Oeste 26 Sudoeste 0 -- -- 72
2019-08-03 21:00:00 23.7 19 Oeste 30 Sudoeste 0 -- -- 64
2019-08-03 20:00:00 25.6 23 Oeste 31 Oeste 0 -- -- 62
2019-08-03 19:00:00 27.1 23 Sudoeste 32 Sudoeste 0 -- -- 54
2019-08-03 18:00:00 28.3 22 Sudoeste 28 Sudoeste 0 -- -- 51
2019-08-03 17:00:00 29.2 21 Sudoeste 28 Sudoeste 0 -- -- 50
2019-08-03 16:00:00 29.5 21 Sudoeste 27 Sudoeste 0 -- -- 50
2019-08-03 15:00:00 28.6 18 Sudoeste 28 Sudoeste 0 -- -- 53
2019-08-03 14:00:00 28.1 16 Sudoeste 24 Sudoeste 0 -- -- 55
2019-08-03 13:00:00 26.7 18 Sudoeste 29 Sudoeste 0 -- -- 62
2019-08-03 12:00:00 26.2 19 Sur 30 Sur 0 -- -- 67
2019-08-03 11:00:00 24.7 17 Sudoeste 26 Sur 0 -- -- 75
2019-08-03 10:00:00 22.2 18 Sur 24 Sur 0 -- -- 89
2019-08-03 09:00:00 17.9 0 Calma 5 Sur 0 -- -- 97
2019-08-03 08:00:00 15.4 0 Calma 4 Sudoeste 0 -- -- 94
2019-08-03 07:00:00 17 4 Sudoeste 6 Sudoeste 0 -- -- 95
2019-08-03 06:00:00 17.6 6 Sudoeste 9 Sudoeste 0 -- -- 94
2019-08-03 05:00:00 17.9 6 Sudoeste 10 Sur 0 -- -- 93
2019-08-03 04:00:00 18.6 4 Sur 14 Sudoeste 0 -- -- 91
2019-08-03 03:00:00 18.6 10 Sudoeste 17 Sudoeste 0 -- -- 89
2019-08-03 02:00:00 16.3 8 Sudoeste 10 Sudoeste 0 -- -- 91
2019-08-03 01:00:00 16.2 6 Sur 9 Sur 0 -- -- 83
2019-08-03 00:00:00 17.6 6 Sur 8 Sur 0 -- -- 76
2019-08-02 23:00:00 19.7 6 Oeste 13 Oeste 0 -- -- 67
2019-08-02 22:00:00 22 10 Oeste 22 Oeste 0 -- -- 61
2019-08-02 21:00:00 25 17 Oeste 32 Oeste 0 -- -- 50
2019-08-02 20:00:00 26.7 21 Oeste 33 Oeste 0 -- -- 48
2019-08-02 19:00:00 29.4 26 Oeste 36 Sudoeste 0 -- -- 37
2019-08-02 18:00:00 30.9 26 Oeste 35 Sudoeste 0 -- -- 36
2019-08-02 17:00:00 31.2 25 Oeste 32 Oeste 0 -- -- 37
2019-08-02 16:00:00 32.6 23 Sudoeste 30 Sudoeste 0 -- -- 33
2019-08-02 15:00:00 33.2 21 Sudoeste 27 Sudoeste 0 -- -- 31
2019-08-02 14:00:00 33.4 18 Sudoeste 25 Oeste 0 -- -- 30
2019-08-02 13:00:00 31.4 16 Sudoeste 23 Oeste 0 -- -- 36
2019-08-02 12:00:00 30.1 11 Sudoeste 18 Sudoeste 0 -- -- 39
2019-08-02 11:00:00 28.1 3 Sur 10 Sudoeste 0 -- -- 38
2019-08-02 10:00:00 23.5 4 Nordeste 10 Norte 0 -- -- 48
2019-08-02 09:00:00 17.7 3 Norte 8 Sudeste 0 -- -- 65
2019-08-02 08:00:00 15.2 2 Nordeste 9 Noroeste 0 -- -- 70
2019-08-02 07:00:00 15.7 6 Noroeste 8 Noroeste 0 -- -- 69
2019-08-02 06:00:00 16.8 5 Oeste 9 Oeste 0 -- -- 62
2019-08-02 05:00:00 17.4 4 Oeste 9 Oeste 0 -- -- 61
2019-08-02 04:00:00 19.1 0 Calma 5 Este 0 -- -- 55
2019-08-02 03:00:00 23.2 3 Nordeste 19 Noroeste 0 -- -- 47
2019-08-02 02:00:00 24.2 12 Noroeste 24 Noroeste 0 -- -- 44
2019-08-02 01:00:00 21.2 9 Oeste 18 Oeste 0 -- -- 65
2019-08-02 00:00:00 22.2 14 Oeste 21 Oeste 0 -- -- 63
2019-08-01 23:00:00 22.1 17 Oeste 24 Oeste 0 -- -- 69
2019-08-01 22:00:00 22.8 16 Oeste 28 Oeste 0 -- -- 62
2019-08-01 21:00:00 24.8 21 Oeste 34 Oeste 0 -- -- 54
2019-08-01 20:00:00 26.6 27 Oeste 37 Oeste 0 -- -- 53
2019-08-01 19:00:00 28.7 30 Oeste 39 Oeste 0 -- -- 58
2019-08-01 18:00:00 31 24 Oeste 34 Oeste 0 -- -- 53
2019-08-01 17:00:00 31.8 24 Oeste 33 Sudoeste 0 -- -- 49
2019-08-01 16:00:00 31.5 26 Sudoeste 36 Oeste 0 -- -- 51
2019-08-01 15:00:00 30.8 26 Oeste 34 Sudoeste 0 -- -- 55
2019-08-01 14:00:00 31.3 22 Sudoeste 30 Oeste 0 -- -- 51
2019-08-01 13:00:00 30.8 18 Sudoeste 24 Oeste 0 -- -- 53
2019-08-01 12:00:00 30.3 12 Sudoeste 19 Sudoeste 0 -- -- 53
2019-08-01 11:00:00 28.5 4 Sudoeste 10 Oeste 0 -- -- 57
2019-08-01 10:00:00 25.2 4 Noroeste 13 Noroeste 0 -- -- 61
2019-08-01 09:00:00 21.3 4 Norte 12 Noroeste 0 -- -- 58
2019-08-01 08:00:00 19.2 7 Noroeste 12 Noroeste 0 -- -- 63
2019-08-01 07:00:00 19 4 Noroeste 8 Oeste 0 -- -- 76
2019-08-01 06:00:00 18.8 5 Oeste 8 Oeste 0 -- -- 83
2019-08-01 05:00:00 20 4 Oeste 9 Oeste 0 -- -- 79
2019-08-01 04:00:00 20.4 8 Oeste 12 Oeste 0 -- -- 80
2019-08-01 03:00:00 21 9 Oeste 13 Oeste 0 -- -- 85
2019-08-01 02:00:00 21 8 Sudoeste 12 Sudoeste 0 -- -- 83
2019-08-01 01:00:00 21.4 6 Sudoeste 13 Oeste 0 -- -- 79
2019-08-01 00:00:00 22.4 9 Oeste 17 Sudoeste 0 -- -- 78
2019-07-31 23:00:00 23.3 10 Sudoeste 24 Oeste 0 -- -- 75
2019-07-31 22:00:00 23.8 15 Oeste 26 Oeste 0 -- -- 74
2019-07-31 21:00:00 26.5 19 Oeste 30 Oeste 0 -- -- 63
2019-07-31 20:00:00 29.4 20 Oeste 27 Sudoeste 0 -- -- 53
2019-07-31 19:00:00 30.9 20 Oeste 30 Oeste 0 -- -- 48
2019-07-31 18:00:00 31.2 21 Oeste 32 Oeste 0 -- -- 48
2019-07-31 17:00:00 32.2 21 Sudoeste 31 Sudoeste 0 -- -- 45
2019-07-31 16:00:00 32.5 21 Sudoeste 30 Sudoeste 0 -- -- 44
2019-07-31 15:00:00 32.4 22 Sudoeste 29 Sudoeste 0 -- -- 44
2019-07-31 14:00:00 32.5 17 Sudoeste 26 Sudoeste 0 -- -- 44
2019-07-31 13:00:00 32.4 17 Sudoeste 24 Sudoeste 0 -- -- 41
2019-07-31 12:00:00 31.8 9 Sudeste 22 Sur 0 -- -- 35
2019-07-31 11:00:00 28.4 10 Sur 17 Sur 0 -- -- 45
2019-07-31 10:00:00 24.2 6 Sur 11 Sudoeste 0 -- -- 58
2019-07-31 09:00:00 18.8 0 Calma 13 Noroeste 0 -- -- 59
2019-07-31 08:00:00 16.8 7 Noroeste 15 Noroeste 0 -- -- 62
2019-07-31 07:00:00 16 5 Noroeste 14 Noroeste 0 -- -- 57
2019-07-31 06:00:00 14.8 5 Oeste 8 Oeste 0 -- -- 52
2019-07-31 05:00:00 16.6 5 Oeste 11 Sur 0 -- -- 44
2019-07-31 04:00:00 15.8 3 Sur 10 Sur 0 -- -- 45
2019-07-31 03:00:00 17.3 0 Calma 10 Norte 0 -- -- 41
2019-07-31 02:00:00 22 5 Norte 14 Norte 0 -- -- 27
2019-07-31 01:00:00 23.6 6 Norte 15 Noroeste 0 -- -- 25
2019-07-31 00:00:00 20.5 8 Noroeste 12 Noroeste 0 -- -- 35
2019-07-30 23:00:00 20.9 8 Oeste 14 Oeste 0 -- -- 59
2019-07-30 22:00:00 23.3 12 Oeste 22 Oeste 0 -- -- 48
2019-07-30 21:00:00 26.8 16 Oeste 26 Sudoeste 0 -- -- 43
2019-07-30 20:00:00 30.8 21 Sudoeste 27 Oeste 0 -- -- 35
2019-07-30 19:00:00 33.6 21 Oeste 35 Oeste 0 -- -- 22
2019-07-30 18:00:00 34.3 23 Oeste 33 Sudoeste 0 -- -- 21
2019-07-30 17:00:00 34.1 27 Oeste 34 Oeste 0 -- -- 20
2019-07-30 16:00:00 33.9 24 Oeste 33 Sudoeste 0 -- -- 24
2019-07-30 15:00:00 33.8 21 Oeste 28 Sudoeste 0 -- -- 25
2019-07-30 14:00:00 32.6 8 Noroeste 21 Nordeste 0 -- -- 28
2019-07-30 13:00:00 31.3 10 Nordeste 27 Este 0 -- -- 28
2019-07-30 12:00:00 29.1 8 Norte 26 Norte 0 -- -- 31
2019-07-30 11:00:00 25.8 8 Norte 21 Nordeste 0 -- -- 38
2019-07-30 10:00:00 22.6 9 Norte 19 Norte 0 -- -- 45
2019-07-30 09:00:00 18.8 7 Noroeste 13 Noroeste 0 -- -- 58
2019-07-30 08:00:00 16.4 5 Noroeste 17 Oeste 0 -- -- 64
2019-07-30 07:00:00 17.1 8 Noroeste 14 Oeste 0 -- -- 60
2019-07-30 06:00:00 18.5 7 Noroeste 21 Noroeste 0 -- -- 55
2019-07-30 05:00:00 19.7 10 Noroeste 24 Noroeste 0 -- -- 53
2019-07-30 04:00:00 20.6 11 Noroeste 19 Noroeste 0 -- -- 50
2019-07-30 03:00:00 21.5 10 Noroeste 18 Noroeste 0 -- -- 46
2019-07-30 02:00:00 22.7 9 Noroeste 16 Noroeste 0 -- -- 42
2019-07-30 01:00:00 22.5 8 Noroeste 16 Oeste 0 -- -- 43
2019-07-30 00:00:00 21 8 Noroeste 15 Noroeste 0 -- -- 57
2019-07-29 23:00:00 21.5 9 Oeste 17 Oeste 0 -- -- 70
2019-07-29 22:00:00 23 13 Oeste 26 Oeste 0 -- -- 70
2019-07-29 21:00:00 24.9 21 Oeste 38 Oeste 0 -- -- 63
2019-07-29 20:00:00 26.4 27 Oeste 40 Oeste 0 -- -- 59
2019-07-29 19:00:00 27.6 26 Oeste 44 Oeste 0 -- -- 55
2019-07-29 18:00:00 28 33 Oeste 44 Oeste 0 -- -- 54
2019-07-29 17:00:00 29.8 28 Sudoeste 38 Oeste 0 -- -- 50
2019-07-29 16:00:00 31.6 28 Sudoeste 37 Sudoeste 0 -- -- 42
2019-07-29 15:00:00 31.7 23 Sudoeste 30 Oeste 0 -- -- 35
2019-07-29 14:00:00 31.3 21 Sudoeste 28 Oeste 0 -- -- 35
2019-07-29 13:00:00 30.1 19 Sudoeste 25 Sudoeste 0 -- -- 38
2019-07-29 12:00:00 28.2 6 Norte 14 Nordeste 0 -- -- 48
2019-07-29 11:00:00 25.1 4 Norte 13 Nordeste 0 -- -- 53
2019-07-29 10:00:00 21.9 6 Norte 15 Norte 0 -- -- 59
2019-07-29 09:00:00 17.9 4 Noroeste 12 Norte 0 -- -- 77
2019-07-29 08:00:00 14.5 0 Calma 4 Noroeste 0 -- -- 87
2019-07-29 07:00:00 16.7 2 Noroeste 6 Oeste 0 -- -- 84
2019-07-29 06:00:00 17.3 6 Oeste 9 Oeste 0 -- -- 90
2019-07-29 05:00:00 18.3 6 Sudoeste 9 Sur 0 -- -- 90
2019-07-29 04:00:00 19.4 5 Sudoeste 12 Sur 0 -- -- 91
2019-07-29 03:00:00 20.1 9 Sudoeste 17 Sudoeste 0 -- -- 90
2019-07-29 02:00:00 19.9 10 Sudoeste 17 Sur 0 -- -- 88
2019-07-29 01:00:00 18.8 9 Sudoeste 12 Sur 0 -- -- 89
2019-07-29 00:00:00 19.4 8 Sur 9 Sur 0 -- -- 86
2019-07-28 23:00:00 20.3 6 Sudoeste 17 Sudoeste 0 -- -- 81
2019-07-28 22:00:00 21.4 12 Sudoeste 23 Oeste 0 -- -- 79
2019-07-28 21:00:00 23.2 18 Oeste 31 Sudoeste 0 -- -- 68
2019-07-28 20:00:00 24.4 22 Sudoeste 34 Sudoeste 0 -- -- 65
2019-07-28 19:00:00 25.3 24 Oeste 35 Oeste 0 -- -- 63
2019-07-28 18:00:00 26.2 27 Oeste 35 Sudoeste 0 -- -- 58
2019-07-28 17:00:00 26.8 24 Sudoeste 35 Sudoeste 0 -- -- 56
2019-07-28 16:00:00 27.1 23 Sudoeste 32 Oeste 0 -- -- 57
2019-07-28 15:00:00 27.2 21 Sudoeste 32 Sudoeste 0 -- -- 55
2019-07-28 14:00:00 26.5 21 Sudoeste 28 Sudoeste 0 -- -- 57
2019-07-28 13:00:00 26.2 18 Sudoeste 26 Sudoeste 0 -- -- 58
2019-07-28 12:00:00 25.6 15 Sudoeste 23 Sudoeste 0 -- -- 58
2019-07-28 11:00:00 24 8 Sudoeste 15 Sudoeste 0 -- -- 60
2019-07-28 10:00:00 20.5 4 Oeste 10 Oeste 0 -- -- 77
2019-07-28 09:00:00 17.9 5 Oeste 12 Oeste 0 -- -- 91
2019-07-28 08:00:00 15.5 4 Noroeste 13 Oeste 0 -- -- 93
2019-07-28 07:00:00 16.2 8 Oeste 14 Oeste 0 -- -- 91
2019-07-28 06:00:00 16 10 Oeste 17 Oeste 0 -- -- 92
2019-07-28 05:00:00 15.5 8 Oeste 12 Oeste 0 -- -- 90
2019-07-28 04:00:00 16 9 Oeste 12 Oeste 0 -- -- 89
2019-07-28 03:00:00 17.2 9 Oeste 13 Oeste 0 -- -- 90
2019-07-28 02:00:00 18.1 8 Sudoeste 12 Oeste 0 -- -- 90
2019-07-28 01:00:00 19.6 8 Sudoeste 18 Oeste 0 -- -- 89
2019-07-28 00:00:00 20.6 13 Oeste 24 Sudoeste 0 -- -- 86
2019-07-27 23:00:00 20.7 15 Oeste 25 Oeste 0 -- -- 84
2019-07-26 12:00:00 26.7 10 Noroeste 21 Oeste 0 -- -- 44
2019-07-26 11:00:00 24.7 8 Oeste 19 Noroeste 0 -- -- 52
2019-07-26 10:00:00 23 10 Noroeste 22 Noroeste 0 -- -- 59
2019-07-26 09:00:00 20.7 10 Noroeste 21 Oeste 0 -- -- 71
2019-07-26 08:00:00 19.6 9 Oeste 15 Oeste 0 -- -- 82
2019-07-26 07:00:00 19.8 8 Oeste 14 Noroeste 0 -- -- 83
2019-07-26 06:00:00 20.1 10 Oeste 15 Oeste 0 -- -- 86
2019-07-26 05:00:00 19.5 9 Oeste 14 Oeste 0 -- -- 88
2019-07-26 04:00:00 19.4 5 Oeste 8 Oeste 0 -- -- 86
2019-07-26 03:00:00 20.3 5 Oeste 9 Oeste 0 -- -- 84
2019-07-26 02:00:00 21 8 Oeste 10 Sudoeste 0 -- -- 86
2019-07-26 01:00:00 21.8 6 Sudoeste 17 Sudoeste 0 -- -- 87
2019-07-26 00:00:00 22.5 10 Sudoeste 17 Sudoeste 0 -- -- 84
2019-07-25 23:00:00 22.9 12 Sudoeste 18 Sudoeste 0 -- -- 79
2019-07-25 22:00:00 23.8 13 Sudoeste 27 Oeste 0 -- -- 74
2019-07-25 21:00:00 25.6 19 Oeste 28 Sudoeste 0 -- -- 67
2019-07-25 20:00:00 26.6 21 Sudoeste 35 Oeste 0 -- -- 67
2019-07-25 19:00:00 27 26 Sudoeste 36 Sudoeste 0 -- -- 68
2019-07-25 18:00:00 29.2 27 Sudoeste 35 Sudoeste 0 -- -- 61
2019-07-25 17:00:00 30.5 23 Sudoeste 31 Sudoeste 0 -- -- 57
2019-07-25 16:00:00 30.1 20 Sudoeste 32 Sudoeste 0 -- -- 58
2019-07-25 15:00:00 30 22 Sudoeste 31 Sudoeste 0 -- -- 58
2019-07-25 14:00:00 29.2 21 Sudoeste 30 Sudoeste 0 -- -- 61
2019-07-25 13:00:00 28.8 20 Sudoeste 28 Sudoeste 0 -- -- 62
2019-07-25 12:00:00 27.9 19 Sudoeste 28 Sudoeste 0 -- -- 67
2019-07-25 11:00:00 26.7 16 Sudoeste 23 Sudoeste 0 -- -- 72
2019-07-25 10:00:00 23.8 14 Sudoeste 21 Sur 0 -- -- 94
2019-07-25 09:00:00 21.2 9 Sur 14 Sudoeste 0 -- -- 98
2019-07-25 08:00:00 16.7 6 Sur 9 Sur 0 -- -- 97
2019-07-25 07:00:00 17.9 0 Calma 7 Sudeste 0 -- -- 96
2019-07-25 06:00:00 16 4 Sur 8 Nordeste 0 -- -- 94
2019-07-25 05:00:00 17.2 4 Norte 7 Noroeste 0 -- -- 93
2019-07-25 04:00:00 18.6 3 Sur 8 Sur 0 -- -- 93
2019-07-25 03:00:00 19.9 3 Oeste 9 Oeste 0 -- -- 94
2019-07-25 02:00:00 20.3 6 Oeste 10 Oeste 0 -- -- 94
2019-07-25 01:00:00 21 5 Oeste 11 Oeste 0 -- -- 92
2019-07-25 00:00:00 20.8 6 Oeste 8 Oeste 0 -- -- 87
2019-07-24 23:00:00 22.7 4 Oeste 10 Oeste 0 -- -- 86
2019-07-24 22:00:00 24.1 8 Oeste 23 Oeste 0 -- -- 83
2019-07-24 21:00:00 26.5 16 Oeste 28 Sudoeste 0 -- -- 72
2019-07-24 20:00:00 28.4 20 Oeste 28 Sudoeste 0 -- -- 64
2019-07-24 19:00:00 29.2 22 Sudoeste 31 Sudoeste 0 -- -- 63
2019-07-24 18:00:00 29.6 24 Oeste 33 Oeste 0 -- -- 62
2019-07-24 17:00:00 29.9 24 Sudoeste 33 Oeste 0 -- -- 61
2019-07-24 16:00:00 29.8 24 Sudoeste 33 Oeste 0 -- -- 62
2019-07-24 15:00:00 30.8 21 Sudoeste 30 Sudoeste 0 -- -- 59
2019-07-24 14:00:00 31 17 Sudoeste 25 Sudoeste 0 -- -- 57
2019-07-24 13:00:00 30.1 13 Sudoeste 23 Sudoeste 0 -- -- 60
2019-07-24 12:00:00 28.9 10 Sudoeste 23 Sudoeste 0 -- -- 63
2019-07-24 11:00:00 27.4 10 Oeste 21 Sudoeste 0 -- -- 68
2019-07-24 10:00:00 25.4 12 Sudoeste 21 Sudoeste 0 -- -- 81
2019-07-24 09:00:00 21.5 3 Norte 5 Nordeste 0 -- -- 97
2019-07-24 08:00:00 18.9 3 Norte 6 Oeste 0 -- -- 96
2019-07-24 07:00:00 19.6 6 Sudoeste 6 Sudoeste 0 -- -- 97
2019-07-24 06:00:00 19.6 3 Sur 5 Sur 0 -- -- 94
2019-07-24 05:00:00 20 3 Sudoeste 8 Sudoeste 0 -- -- 94
2019-07-24 04:00:00 21.4 6 Sudoeste 9 Sudoeste 0 -- -- 96
2019-07-24 03:00:00 20.2 7 Sur 9 Sudoeste 0 -- -- 92
2019-07-24 02:00:00 21.2 3 Noroeste 7 Nordeste 0 -- -- 93
2019-07-24 01:00:00 21.8 2 Sur 5 Sudoeste 0 -- -- 89
2019-07-24 00:00:00 22.6 5 Sudoeste 8 Sudoeste 0 -- -- 88